sensor_id;sensor_type;location;lat;lon;timestamp;pressure;altitude;pressure_sealevel;temperature;humidity
32735;BME280;19112;51.076;3.706;2023-07-24T00:03:16;100025.03;;;19.07;94.01
32735;BME280;19112;51.076;3.706;2023-07-24T00:11:12;100351.97;;;21.23;93.60
32735;BME280;19112;51.076;3.706;2023-07-24T00:18:24;99954.69;;;18.64;93.78
32735;BME280;19112;51.076;3.706;2023-07-24T00:33:27;100340.78;;;21.03;94.51
32735;BME280;19112;51.076;3.706;2023-07-24T00:41:14;100343.56;;;20.97;94.88
32735;BME280;19112;51.076;3.706;2023-07-24T00:47:54;100088.41;;;19.40;94.43
32735;BME280;19112;51.076;3.706;2023-07-24T00:51:39;100345.50;;;20.88;94.79
32735;BME280;19112;51.076;3.706;2023-07-24T00:59:11;99929.41;;;18.32;94.27
32735;BME280;19112;51.076;3.706;2023-07-24T01:03:03;99969.00;;;18.55;94.43
32735;BME280;19112;51.076;3.706;2023-07-24T01:06:50;100366.16;;;20.76;94.83
32735;BME280;19112;51.076;3.706;2023-07-24T01:33:11;99909.09;;;18.29;94.45
32735;BME280;19112;51.076;3.706;2023-07-24T01:36:58;99891.56;;;18.15;94.18
32735;BME280;19112;51.076;3.706;2023-07-24T01:44:08;99977.91;;;18.51;94.95
32735;BME280;19112;51.076;3.706;2023-07-24T01:47:49;99975.06;;;18.63;94.34
32735;BME280;19112;51.076;3.706;2023-07-24T01:59:47;100307.03;;;20.48;94.78
32735;BME280;19112;51.076;3.706;2023-07-24T02:03:45;99968.09;;;18.56;94.42
32735;BME280;19112;51.076;3.706;2023-07-24T02:07:19;99826.75;;;17.60;93.24
32735;BME280;19112;51.076;3.706;2023-07-24T02:15:14;99862.69;;;17.90;94.06
32735;BME280;19112;51.076;3.706;2023-07-24T02:22:39;100276.88;;;20.42;93.80
32735;BME280;19112;51.076;3.706;2023-07-24T02:25:44;99953.34;;;18.33;93.65
32735;BME280;19112;51.076;3.706;2023-07-24T02:28:15;99932.31;;;18.15;93.24
32735;BME280;19112;51.076;3.706;2023-07-24T02:30:47;99969.28;;;18.33;93.69
32735;BME280;19112;51.076;3.706;2023-07-24T02:33:54;100060.00;;;18.78;94.68
32735;BME280;19112;51.076;3.706;2023-07-24T02:36:22;100309.41;;;20.06;94.28
32735;BME280;19112;51.076;3.706;2023-07-24T02:39:01;100312.16;;;20.03;94.09
32735;BME280;19112;51.076;3.706;2023-07-24T02:41:38;99984.56;;;18.15;93.92
32735;BME280;19112;51.076;3.706;2023-07-24T02:44:36;100019.88;;;18.24;94.01
32735;BME280;19112;51.076;3.706;2023-07-24T02:47:17;100316.50;;;20.08;94.14
32735;BME280;19112;51.076;3.706;2023-07-24T02:49:48;100320.25;;;19.94;93.14
32735;BME280;19112;51.076;3.706;2023-07-24T02:52:48;99674.38;;;16.22;93.72
32735;BME280;19112;51.076;3.706;2023-07-24T02:56:46;99872.19;;;17.28;94.37
32735;BME280;19112;51.076;3.706;2023-07-24T02:59:39;99845.84;;;17.11;93.74
32735;BME280;19112;51.076;3.706;2023-07-24T03:02:55;100291.19;;;19.77;94.77
32735;BME280;19112;51.076;3.706;2023-07-24T03:06:14;100291.19;;;19.75;94.07
32735;BME280;19112;51.076;3.706;2023-07-24T03:09:27;99877.63;;;17.17;93.88
32735;BME280;19112;51.076;3.706;2023-07-24T03:12:22;99964.78;;;17.57;93.62
32735;BME280;19112;51.076;3.706;2023-07-24T03:15:04;100190.16;;;18.91;94.60
32735;BME280;19112;51.076;3.706;2023-07-24T03:18:07;99881.13;;;17.19;94.88
32735;BME280;19112;51.076;3.706;2023-07-24T03:20:48;99888.34;;;17.05;94.82
32735;BME280;19112;51.076;3.706;2023-07-24T03:23:31;99987.78;;;17.58;94.73
32735;BME280;19112;51.076;3.706;2023-07-24T03:26:12;99585.91;;;15.40;94.46
32735;BME280;19112;51.076;3.706;2023-07-24T03:29:06;100017.69;;;17.78;95.31
32735;BME280;19112;51.076;3.706;2023-07-24T03:31:57;99989.44;;;17.73;95.02
32735;BME280;19112;51.076;3.706;2023-07-24T03:34:41;99974.38;;;17.72;94.77
32735;BME280;19112;51.076;3.706;2023-07-24T03:37:25;99953.16;;;17.73;94.58
32735;BME280;19112;51.076;3.706;2023-07-24T03:40:15;99915.31;;;17.53;94.58
32735;BME280;19112;51.076;3.706;2023-07-24T03:43:01;99948.72;;;17.75;94.48
32735;BME280;19112;51.076;3.706;2023-07-24T03:45:39;99922.31;;;17.59;94.15
32735;BME280;19112;51.076;3.706;2023-07-24T03:48:42;99955.75;;;17.79;94.98
32735;BME280;19112;51.076;3.706;2023-07-24T03:51:09;99797.50;;;16.82;94.03
32735;BME280;19112;51.076;3.706;2023-07-24T03:53:40;100269.94;;;19.71;94.29
32735;BME280;19112;51.076;3.706;2023-07-24T03:56:17;99862.50;;;17.24;93.77
32735;BME280;19112;51.076;3.706;2023-07-24T03:58:48;99962.81;;;17.80;93.07
32735;BME280;19112;51.076;3.706;2023-07-24T04:01:49;99794.88;;;16.83;93.75
32735;BME280;19112;51.076;3.706;2023-07-24T04:04:19;99952.28;;;17.68;92.31
32735;BME280;19112;51.076;3.706;2023-07-24T04:06:50;99608.66;;;15.67;92.28
32735;BME280;19112;51.076;3.706;2023-07-24T04:09:29;99822.22;;;16.85;92.98
32735;BME280;19112;51.076;3.706;2023-07-24T04:12:28;100298.53;;;19.55;93.99
32735;BME280;19112;51.076;3.706;2023-07-24T04:15:04;99876.69;;;17.20;94.04
32735;BME280;19112;51.076;3.706;2023-07-24T04:17:37;100112.50;;;18.58;94.38
32735;BME280;19112;51.076;3.706;2023-07-24T04:20:17;99652.63;;;15.84;93.85
32735;BME280;19112;51.076;3.706;2023-07-24T04:23:24;100302.81;;;19.71;94.76
32735;BME280;19112;51.076;3.706;2023-07-24T04:26:18;99954.88;;;17.79;94.66
32735;BME280;19112;51.076;3.706;2023-07-24T04:28:53;100303.72;;;19.69;94.78
32735;BME280;19112;51.076;3.706;2023-07-24T04:31:30;100277.03;;;19.70;94.96
32735;BME280;19112;51.076;3.706;2023-07-24T04:34:33;100276.13;;;19.74;95.32
32735;BME280;19112;51.076;3.706;2023-07-24T04:37:25;99694.53;;;16.39;95.13
32735;BME280;19112;51.076;3.706;2023-07-24T04:40:01;100277.91;;;19.74;95.24
32735;BME280;19112;51.076;3.706;2023-07-24T04:42:44;100275.22;;;19.77;95.39
32735;BME280;19112;51.076;3.706;2023-07-24T04:45:39;100155.38;;;19.09;95.38
32735;BME280;19112;51.076;3.706;2023-07-24T04:48:20;99946.00;;;17.78;94.54
32735;BME280;19112;51.076;3.706;2023-07-24T04:50:57;99830.75;;;17.18;94.00
32735;BME280;19112;51.076;3.706;2023-07-24T04:53:51;100079.59;;;18.71;94.31
32735;BME280;19112;51.076;3.706;2023-07-24T04:56:33;100144.78;;;19.04;94.01
32735;BME280;19112;51.076;3.706;2023-07-24T04:59:09;99973.28;;;17.94;94.66
32735;BME280;19112;51.076;3.706;2023-07-24T05:01:51;99949.34;;;18.00;95.26
32735;BME280;19112;51.076;3.706;2023-07-24T05:05:03;99894.75;;;17.75;95.59
32735;BME280;19112;51.076;3.706;2023-07-24T05:07:38;99942.38;;;17.87;95.06
32735;BME280;19112;51.076;3.706;2023-07-24T05:10:16;99818.31;;;17.26;94.81
32735;BME280;19112;51.076;3.706;2023-07-24T05:12:51;100178.19;;;19.28;95.37
32735;BME280;19112;51.076;3.706;2023-07-24T05:15:28;100175.50;;;19.30;95.21
32735;BME280;19112;51.076;3.706;2023-07-24T05:18:21;99978.56;;;18.00;95.03
32735;BME280;19112;51.076;3.706;2023-07-24T05:20:55;100300.56;;;20.02;95.33
32735;BME280;19112;51.076;3.706;2023-07-24T05:23:30;100304.06;;;20.09;95.58
32735;BME280;19112;51.076;3.706;2023-07-24T05:26:06;99984.38;;;18.30;94.87
32735;BME280;19112;51.076;3.706;2023-07-24T05:29:14;99908.69;;;17.92;95.71
32735;BME280;19112;51.076;3.706;2023-07-24T05:32:24;99666.91;;;16.61;95.46
32735;BME280;19112;51.076;3.706;2023-07-24T05:35:18;99679.13;;;16.81;94.88
32735;BME280;19112;51.076;3.706;2023-07-24T05:38:14;99867.94;;;17.93;94.63
32735;BME280;19112;51.076;3.706;2023-07-24T05:41:09;99992.03;;;18.56;94.67
32735;BME280;19112;51.076;3.706;2023-07-24T05:43:47;99961.94;;;18.52;95.47
32735;BME280;19112;51.076;3.706;2023-07-24T05:46:43;99984.78;;;18.69;96.30
32735;BME280;19112;51.076;3.706;2023-07-24T05:49:33;99886.91;;;18.33;97.53
32735;BME280;19112;51.076;3.706;2023-07-24T05:52:13;99854.16;;;18.31;97.89
32735;BME280;19112;51.076;3.706;2023-07-24T05:54:42;99977.03;;;19.14;98.41
32735;BME280;19112;51.076;3.706;2023-07-24T05:57:26;99956.34;;;19.31;98.66
32735;BME280;19112;51.076;3.706;2023-07-24T06:00:19;100013.97;;;19.87;98.45
32735;BME280;19112;51.076;3.706;2023-07-24T06:03:05;99781.09;;;18.57;98.31
32735;BME280;19112;51.076;3.706;2023-07-24T06:06:14;99852.91;;;19.11;96.55
32735;BME280;19112;51.076;3.706;2023-07-24T06:08:46;100311.22;;;21.60;96.40
32735;BME280;19112;51.076;3.706;2023-07-24T06:11:29;99989.09;;;19.88;96.59
32735;BME280;19112;51.076;3.706;2023-07-24T06:14:21;99991.53;;;19.99;97.04
32735;BME280;19112;51.076;3.706;2023-07-24T06:16:52;100001.31;;;19.97;96.42
32735;BME280;19112;51.076;3.706;2023-07-24T06:19:39;99951.81;;;19.85;95.85
32735;BME280;19112;51.076;3.706;2023-07-24T06:22:29;99958.09;;;19.83;95.38
32735;BME280;19112;51.076;3.706;2023-07-24T06:25:05;100336.50;;;21.87;95.55
32735;BME280;19112;51.076;3.706;2023-07-24T06:28:12;100304.28;;;21.93;94.77
32735;BME280;19112;51.076;3.706;2023-07-24T06:31:24;99692.84;;;18.38;96.10
32735;BME280;19112;51.076;3.706;2023-07-24T06:34:08;99993.44;;;20.37;97.40
32735;BME280;19112;51.076;3.706;2023-07-24T06:36:38;100174.50;;;21.41;97.12
32735;BME280;19112;51.076;3.706;2023-07-24T06:39:15;100220.06;;;21.75;96.51
32735;BME280;19112;51.076;3.706;2023-07-24T06:42:04;99901.28;;;19.82;94.77
32735;BME280;19112;51.076;3.706;2023-07-24T06:44:49;100317.28;;;22.11;92.34
32735;BME280;19112;51.076;3.706;2023-07-24T06:48:24;100310.41;;;21.98;91.84
32735;BME280;19112;51.076;3.706;2023-07-24T06:51:24;99771.34;;;18.59;90.40
32735;BME280;19112;51.076;3.706;2023-07-24T06:54:15;99671.00;;;17.64;90.21
32735;BME280;19112;51.076;3.706;2023-07-24T06:56:59;99960.91;;;19.23;90.66
32735;BME280;19112;51.076;3.706;2023-07-24T07:00:31;99849.47;;;18.47;91.05
32735;BME280;19112;51.076;3.706;2023-07-24T07:03:49;100293.75;;;20.96;92.26
32735;BME280;19112;51.076;3.706;2023-07-24T07:07:03;99783.88;;;17.92;91.98
32735;BME280;19112;51.076;3.706;2023-07-24T07:10:07;99886.94;;;18.30;92.80
32735;BME280;19112;51.076;3.706;2023-07-24T07:16:19;99842.19;;;18.00;94.02
32735;BME280;19112;51.076;3.706;2023-07-24T07:19:18;99768.44;;;17.54;94.69
32735;BME280;19112;51.076;3.706;2023-07-24T07:22:30;99924.53;;;18.66;95.95
32735;BME280;19112;51.076;3.706;2023-07-24T07:25:36;99944.50;;;18.96;96.18
32735;BME280;19112;51.076;3.706;2023-07-24T07:28:07;99889.06;;;18.70;96.75
32735;BME280;19112;51.076;3.706;2023-07-24T07:30:57;100295.00;;;21.24;98.00
32735;BME280;19112;51.076;3.706;2023-07-24T07:33:26;100284.38;;;21.21;97.76
32735;BME280;19112;51.076;3.706;2023-07-24T07:36:31;99865.78;;;18.83;97.22
32735;BME280;19112;51.076;3.706;2023-07-24T07:39:14;99922.75;;;19.22;96.92
32735;BME280;19112;51.076;3.706;2023-07-24T07:42:29;100297.03;;;21.58;96.96
32735;BME280;19112;51.076;3.706;2023-07-24T07:44:57;99912.66;;;19.44;97.30
32735;BME280;19112;51.076;3.706;2023-07-24T07:47:45;100281.09;;;21.93;98.60
32735;BME280;19112;51.076;3.706;2023-07-24T07:50:22;99798.41;;;19.33;99.74
32735;BME280;19112;51.076;3.706;2023-07-24T07:53:19;99948.13;;;20.37;98.28
32735;BME280;19112;51.076;3.706;2023-07-24T07:56:04;100284.47;;;22.76;98.63
32735;BME280;19112;51.076;3.706;2023-07-24T07:58:56;99959.47;;;20.87;95.32
32735;BME280;19112;51.076;3.706;2023-07-24T08:01:52;100282.94;;;23.02;95.46
32735;BME280;19112;51.076;3.706;2023-07-24T08:04:45;99956.91;;;21.20;94.37
32735;BME280;19112;51.076;3.706;2023-07-24T08:07:19;100286.16;;;23.14;93.40
32735;BME280;19112;51.076;3.706;2023-07-24T08:09:59;99923.41;;;21.07;92.42
32735;BME280;19112;51.076;3.706;2023-07-24T08:12:27;100289.63;;;23.18;92.03
32735;BME280;19112;51.076;3.706;2023-07-24T08:14:57;100021.88;;;21.58;91.10
32735;BME280;19112;51.076;3.706;2023-07-24T08:17:49;99970.91;;;21.31;90.93
32735;BME280;19112;51.076;3.706;2023-07-24T08:20:16;99928.09;;;20.99;90.04
32735;BME280;19112;51.076;3.706;2023-07-24T08:22:49;100023.41;;;21.32;89.67
32735;BME280;19112;51.076;3.706;2023-07-24T08:25:25;100176.81;;;22.32;89.92
32735;BME280;19112;51.076;3.706;2023-07-24T08:28:10;100027.66;;;21.39;89.96
32735;BME280;19112;51.076;3.706;2023-07-24T08:31:02;99683.94;;;19.74;91.43
32735;BME280;19112;51.076;3.706;2023-07-24T08:33:45;99873.94;;;20.93;92.19
32735;BME280;19112;51.076;3.706;2023-07-24T08:36:21;100277.47;;;23.68;92.70
32735;BME280;19112;51.076;3.706;2023-07-24T08:39:11;99833.28;;;21.51;92.54
32735;BME280;19112;51.076;3.706;2023-07-24T08:41:45;99842.69;;;21.65;90.39
32735;BME280;19112;51.076;3.706;2023-07-24T08:44:20;99865.88;;;22.26;88.89
32735;BME280;19112;51.076;3.706;2023-07-24T08:46:49;99851.44;;;22.31;86.39
32735;BME280;19112;51.076;3.706;2023-07-24T08:49:20;100271.84;;;24.88;83.41
32735;BME280;19112;51.076;3.706;2023-07-24T08:52:07;99891.47;;;22.90;84.11
32735;BME280;19112;51.076;3.706;2023-07-24T08:54:58;99885.53;;;23.09;84.23
32735;BME280;19112;51.076;3.706;2023-07-24T08:57:37;99863.38;;;23.04;81.96
32735;BME280;19112;51.076;3.706;2023-07-24T09:00:25;99745.09;;;22.39;78.80
32735;BME280;19112;51.076;3.706;2023-07-24T09:03:16;99948.50;;;23.73;78.80
32735;BME280;19112;51.076;3.706;2023-07-24T09:06:10;100191.59;;;25.04;76.04
32735;BME280;19112;51.076;3.706;2023-07-24T09:08:46;100178.34;;;24.98;75.71
32735;BME280;19112;51.076;3.706;2023-07-24T09:11:18;99946.47;;;23.53;76.17
32735;BME280;19112;51.076;3.706;2023-07-24T09:13:53;99845.06;;;22.91;70.97
32735;BME280;19112;51.076;3.706;2023-07-24T09:16:50;99982.09;;;23.84;73.89
32735;BME280;19112;51.076;3.706;2023-07-24T09:19:24;100129.84;;;24.79;74.81
32735;BME280;19112;51.076;3.706;2023-07-24T09:22:23;99909.47;;;23.40;76.74
32735;BME280;19112;51.076;3.706;2023-07-24T09:25:42;100214.72;;;25.08;77.38
32735;BME280;19112;51.076;3.706;2023-07-24T09:28:30;100207.94;;;25.46;75.05
32735;BME280;19112;51.076;3.706;2023-07-24T09:31:14;99923.50;;;23.73;73.41
32735;BME280;19112;51.076;3.706;2023-07-24T09:33:46;99989.94;;;24.15;69.95
32735;BME280;19112;51.076;3.706;2023-07-24T09:36:24;99954.75;;;23.74;71.98
32735;BME280;19112;51.076;3.706;2023-07-24T09:39:36;100074.16;;;24.34;72.30
32735;BME280;19112;51.076;3.706;2023-07-24T09:42:39;100166.97;;;24.91;69.30
32735;BME280;19112;51.076;3.706;2023-07-24T09:45:11;99781.41;;;22.73;68.50
32735;BME280;19112;51.076;3.706;2023-07-24T09:47:44;99947.81;;;23.93;70.83
32735;BME280;19112;51.076;3.706;2023-07-24T09:50:21;99804.88;;;23.43;69.51
32735;BME280;19112;51.076;3.706;2023-07-24T09:53:32;99924.59;;;23.92;68.22
32735;BME280;19112;51.076;3.706;2023-07-24T09:56:46;100252.56;;;25.97;68.84
32735;BME280;19112;51.076;3.706;2023-07-24T09:59:48;99793.03;;;23.25;68.79
32735;BME280;19112;51.076;3.706;2023-07-24T10:02:37;100278.06;;;26.10;67.89
32735;BME280;19112;51.076;3.706;2023-07-24T10:05:39;99999.94;;;24.35;66.38
32735;BME280;19112;51.076;3.706;2023-07-24T10:08:22;99998.75;;;24.67;59.47
32735;BME280;19112;51.076;3.706;2023-07-24T10:11:33;99948.03;;;24.59;58.61
32735;BME280;19112;51.076;3.706;2023-07-24T10:14:34;99908.88;;;24.30;64.71
32735;BME280;19112;51.076;3.706;2023-07-24T10:17:49;99904.88;;;24.42;60.48
32735;BME280;19112;51.076;3.706;2023-07-24T10:21:29;99993.66;;;25.28;63.37
32735;BME280;19112;51.076;3.706;2023-07-24T10:24:51;100008.50;;;25.58;60.19
32735;BME280;19112;51.076;3.706;2023-07-24T10:28:46;99906.34;;;24.94;62.18
32735;BME280;19112;51.076;3.706;2023-07-24T10:31:40;100277.31;;;27.13;60.63
32735;BME280;19112;51.076;3.706;2023-07-24T10:35:35;99918.25;;;25.11;60.26
32735;BME280;19112;51.076;3.706;2023-07-24T10:42:09;100002.38;;;25.33;62.21
32735;BME280;19112;51.076;3.706;2023-07-24T10:45:24;100279.03;;;26.94;63.92
32735;BME280;19112;51.076;3.706;2023-07-24T10:48:31;99839.69;;;24.40;61.00
32735;BME280;19112;51.076;3.706;2023-07-24T10:51:57;99895.81;;;24.90;56.59
32735;BME280;19112;51.076;3.706;2023-07-24T10:55:39;100035.13;;;25.65;62.62
32735;BME280;19112;51.076;3.706;2023-07-24T10:58:53;99858.66;;;24.79;61.59
32735;BME280;19112;51.076;3.706;2023-07-24T11:02:22;100317.19;;;27.46;59.43
32735;BME280;19112;51.076;3.706;2023-07-24T11:04:49;99955.69;;;25.57;58.39
32735;BME280;19112;51.076;3.706;2023-07-24T11:07:36;100155.84;;;26.98;57.67
32735;BME280;19112;51.076;3.706;2023-07-24T11:10:23;99877.63;;;25.39;60.34
32735;BME280;19112;51.076;3.706;2023-07-24T11:12:52;99877.97;;;25.51;58.55
32735;BME280;19112;51.076;3.706;2023-07-24T11:15:31;99919.38;;;25.68;57.21
32735;BME280;19112;51.076;3.706;2023-07-24T11:18:17;99934.38;;;25.94;57.41
32735;BME280;19112;51.076;3.706;2023-07-24T11:21:14;100156.03;;;26.93;58.17
32735;BME280;19112;51.076;3.706;2023-07-24T11:24:49;100273.38;;;27.41;58.65
32735;BME280;19112;51.076;3.706;2023-07-24T11:28:11;100286.56;;;27.08;60.28
32735;BME280;19112;51.076;3.706;2023-07-24T11:31:39;100016.22;;;25.00;61.30
32735;BME280;19112;51.076;3.706;2023-07-24T11:34:30;99982.75;;;24.40;63.02
32735;BME280;19112;51.076;3.706;2023-07-24T11:37:21;100184.44;;;25.03;59.60
32735;BME280;19112;51.076;3.706;2023-07-24T11:40:54;99995.81;;;23.74;62.54
32735;BME280;19112;51.076;3.706;2023-07-24T11:43:33;100296.09;;;25.12;64.44
32735;BME280;19112;51.076;3.706;2023-07-24T11:46:06;99964.69;;;22.89;62.04
32735;BME280;19112;51.076;3.706;2023-07-24T11:48:35;100289.44;;;24.70;60.84
32735;BME280;19112;51.076;3.706;2023-07-24T11:51:18;99987.19;;;22.82;64.45
32735;BME280;19112;51.076;3.706;2023-07-24T11:53:45;100006.81;;;23.12;67.19
32735;BME280;19112;51.076;3.706;2023-07-24T11:56:26;99792.19;;;22.17;66.33
32735;BME280;19112;51.076;3.706;2023-07-24T11:59:37;100007.16;;;23.30;66.51
32735;BME280;19112;51.076;3.706;2023-07-24T12:02:28;99790.84;;;21.71;65.46
32735;BME280;19112;51.076;3.706;2023-07-24T12:05:15;100002.91;;;22.65;68.14
32735;BME280;19112;51.076;3.706;2023-07-24T12:08:02;100038.25;;;22.45;68.93
32735;BME280;19112;51.076;3.706;2023-07-24T12:10:51;100312.84;;;24.11;69.78
32735;BME280;19112;51.076;3.706;2023-07-24T12:13:21;100325.22;;;23.85;71.99
32735;BME280;19112;51.076;3.706;2023-07-24T12:15:47;100016.84;;;21.80;74.28
32735;BME280;19112;51.076;3.706;2023-07-24T12:18:46;99877.22;;;21.03;74.57
32735;BME280;19112;51.076;3.706;2023-07-24T12:21:15;99918.41;;;21.29;76.36
32735;BME280;19112;51.076;3.706;2023-07-24T12:23:43;100036.69;;;22.04;77.78
32735;BME280;19112;51.076;3.706;2023-07-24T12:26:10;100012.28;;;21.83;77.96
32735;BME280;19112;51.076;3.706;2023-07-24T12:28:43;99935.53;;;21.57;79.14
32735;BME280;19112;51.076;3.706;2023-07-24T12:31:13;99980.06;;;21.89;78.16
32735;BME280;19112;51.076;3.706;2023-07-24T12:33:45;99806.06;;;21.04;78.18
32735;BME280;19112;51.076;3.706;2023-07-24T12:36:18;100018.56;;;22.16;76.88
32735;BME280;19112;51.076;3.706;2023-07-24T12:38:49;100004.34;;;22.14;73.16
32735;BME280;19112;51.076;3.706;2023-07-24T12:41:18;99922.59;;;21.03;75.91
32735;BME280;19112;51.076;3.706;2023-07-24T12:43:46;100316.72;;;23.06;77.05
32735;BME280;19112;51.076;3.706;2023-07-24T12:46:19;100029.00;;;21.18;77.60
32735;BME280;19112;51.076;3.706;2023-07-24T12:48:56;99685.78;;;18.85;77.85
32735;BME280;19112;51.076;3.706;2023-07-24T12:51:32;100332.31;;;22.54;79.35
32735;BME280;19112;51.076;3.706;2023-07-24T12:54:20;100325.47;;;22.41;80.96
32735;BME280;19112;51.076;3.706;2023-07-24T12:56:51;100006.66;;;19.97;79.97
32735;BME280;19112;51.076;3.706;2023-07-24T12:59:23;100008.66;;;19.86;82.53
32735;BME280;19112;51.076;3.706;2023-07-24T13:01:58;100344.88;;;21.70;84.11
32735;BME280;19112;51.076;3.706;2023-07-24T13:04:25;100036.81;;;19.47;84.46
32735;BME280;19112;51.076;3.706;2023-07-24T13:06:58;99964.31;;;18.75;85.92
32735;BME280;19112;51.076;3.706;2023-07-24T13:09:31;99967.97;;;18.70;86.06
32735;BME280;19112;51.076;3.706;2023-07-24T13:12:18;99892.50;;;18.14;88.46
32735;BME280;19112;51.076;3.706;2023-07-24T13:14:45;100021.94;;;18.76;88.78
32735;BME280;19112;51.076;3.706;2023-07-24T13:17:11;100376.94;;;20.70;90.07
32735;BME280;19112;51.076;3.706;2023-07-24T13:19:42;100381.38;;;20.69;90.55
32735;BME280;19112;51.076;3.706;2023-07-24T13:22:21;99978.84;;;18.47;90.70
32735;BME280;19112;51.076;3.706;2023-07-24T13:25:05;100052.09;;;18.75;91.72
32735;BME280;19112;51.076;3.706;2023-07-24T13:28:03;100203.50;;;19.60;92.32
32735;BME280;19112;51.076;3.706;2023-07-24T13:30:45;99874.28;;;17.83;92.91
32735;BME280;19112;51.076;3.706;2023-07-24T13:33:23;100358.22;;;20.71;94.91
32735;BME280;19112;51.076;3.706;2023-07-24T13:35:49;99940.94;;;18.34;95.43
32735;BME280;19112;51.076;3.706;2023-07-24T13:38:18;100021.75;;;18.89;97.10
32735;BME280;19112;51.076;3.706;2023-07-24T13:40:45;99967.72;;;18.83;97.77
32735;BME280;19112;51.076;3.706;2023-07-24T13:43:10;100056.47;;;19.40;97.13
32735;BME280;19112;51.076;3.706;2023-07-24T13:45:36;100297.88;;;21.13;97.95
32735;BME280;19112;51.076;3.706;2023-07-24T13:48:09;100050.09;;;20.04;98.68
32735;BME280;19112;51.076;3.706;2023-07-24T13:50:35;100026.47;;;20.30;100.00
32735;BME280;19112;51.076;3.706;2023-07-24T13:53:04;100022.63;;;20.47;99.62
32735;BME280;19112;51.076;3.706;2023-07-24T13:55:32;100166.03;;;21.61;97.55
32735;BME280;19112;51.076;3.706;2023-07-24T13:58:01;100032.31;;;20.91;95.48
32735;BME280;19112;51.076;3.706;2023-07-24T14:00:30;100058.13;;;21.29;94.73
32735;BME280;19112;51.076;3.706;2023-07-24T14:02:59;100091.91;;;21.70;92.68
32735;BME280;19112;51.076;3.706;2023-07-24T14:05:28;99983.84;;;21.11;91.43
32735;BME280;19112;51.076;3.706;2023-07-24T14:08:19;100028.75;;;21.66;90.47
32735;BME280;19112;51.076;3.706;2023-07-24T14:10:51;100060.56;;;21.77;88.23
32735;BME280;19112;51.076;3.706;2023-07-24T14:13:17;100040.78;;;21.84;85.96
32735;BME280;19112;51.076;3.706;2023-07-24T14:15:58;99906.31;;;21.14;85.52
32735;BME280;19112;51.076;3.706;2023-07-24T14:18:24;99953.16;;;21.27;86.39
32735;BME280;19112;51.076;3.706;2023-07-24T14:20:58;99988.53;;;21.38;86.40
32735;BME280;19112;51.076;3.706;2023-07-24T14:23:40;99902.66;;;21.18;84.71
32735;BME280;19112;51.076;3.706;2023-07-24T14:26:11;99985.91;;;21.71;85.17
32735;BME280;19112;51.076;3.706;2023-07-24T14:28:37;100073.50;;;22.28;84.38
32735;BME280;19112;51.076;3.706;2023-07-24T14:31:06;99924.72;;;21.26;83.36
32735;BME280;19112;51.076;3.706;2023-07-24T14:33:36;100090.44;;;21.93;83.53
32735;BME280;19112;51.076;3.706;2023-07-24T14:36:07;99879.94;;;20.66;83.43
32735;BME280;19112;51.076;3.706;2023-07-24T14:38:44;100028.97;;;21.59;84.48
32735;BME280;19112;51.076;3.706;2023-07-24T14:41:31;99988.25;;;21.12;85.62
32735;BME280;19112;51.076;3.706;2023-07-24T14:44:02;100099.59;;;21.84;84.23
32735;BME280;19112;51.076;3.706;2023-07-24T14:46:32;100347.34;;;23.30;84.83
32735;BME280;19112;51.076;3.706;2023-07-24T14:48:58;99883.19;;;20.40;81.55
32735;BME280;19112;51.076;3.706;2023-07-24T14:51:34;100057.22;;;21.69;84.09
32735;BME280;19112;51.076;3.706;2023-07-24T14:54:06;100086.25;;;21.45;82.45
32735;BME280;19112;51.076;3.706;2023-07-24T14:56:36;100033.81;;;21.04;82.83
32735;BME280;19112;51.076;3.706;2023-07-24T14:59:11;100045.94;;;21.17;83.47
32735;BME280;19112;51.076;3.706;2023-07-24T15:01:49;100073.56;;;21.16;84.28
32735;BME280;19112;51.076;3.706;2023-07-24T15:04:22;100362.78;;;22.84;83.45
32735;BME280;19112;51.076;3.706;2023-07-24T15:07:23;100379.25;;;23.05;83.37
32735;BME280;19112;51.076;3.706;2023-07-24T15:10:02;100065.25;;;21.67;79.16
32735;BME280;19112;51.076;3.706;2023-07-24T15:12:53;99945.41;;;21.54;80.24
32735;BME280;19112;51.076;3.706;2023-07-24T15:15:28;100087.16;;;22.17;80.23
32735;BME280;19112;51.076;3.706;2023-07-24T15:18:17;100376.72;;;23.98;76.93
32735;BME280;19112;51.076;3.706;2023-07-24T15:20:49;100067.91;;;22.03;76.86
32735;BME280;19112;51.076;3.706;2023-07-24T15:23:40;100125.78;;;22.40;77.35
32735;BME280;19112;51.076;3.706;2023-07-24T15:26:15;100022.38;;;22.06;76.90
32735;BME280;19112;51.076;3.706;2023-07-24T15:28:45;100090.31;;;21.97;77.62
32735;BME280;19112;51.076;3.706;2023-07-24T15:31:14;100377.34;;;23.75;78.52
32735;BME280;19112;51.076;3.706;2023-07-24T15:34:08;99998.22;;;21.41;77.61
32735;BME280;19112;51.076;3.706;2023-07-24T15:37:00;100058.19;;;22.01;76.01
32735;BME280;19112;51.076;3.706;2023-07-24T15:39:28;100385.53;;;24.01;74.70
32735;BME280;19112;51.076;3.706;2023-07-24T15:41:56;100202.69;;;22.98;74.21
32735;BME280;19112;51.076;3.706;2023-07-24T15:44:32;100067.25;;;21.59;78.83
32735;BME280;19112;51.076;3.706;2023-07-24T15:47:04;100068.94;;;21.63;76.70
32735;BME280;19112;51.076;3.706;2023-07-24T15:49:36;100036.28;;;21.51;76.26
32735;BME280;19112;51.076;3.706;2023-07-24T15:52:07;100067.97;;;21.27;77.26
32735;BME280;19112;51.076;3.706;2023-07-24T15:54:45;99874.13;;;19.63;78.37
32735;BME280;19112;51.076;3.706;2023-07-24T15:57:15;100133.06;;;20.80;78.08
32735;BME280;19112;51.076;3.706;2023-07-24T16:00:12;100421.25;;;22.65;81.09
32735;BME280;19112;51.076;3.706;2023-07-24T16:02:44;100428.50;;;22.60;81.26
32735;BME280;19112;51.076;3.706;2023-07-24T16:05:41;100120.34;;;20.92;80.58
32735;BME280;19112;51.076;3.706;2023-07-24T16:08:37;100120.81;;;21.13;79.49
32735;BME280;19112;51.076;3.706;2023-07-24T16:15:14;100359.63;;;23.04;78.05